Time;durP1;ratioP1;P1;durP2;ratioP2;P2;SDS_P1;SDS_P2;PMS_P1;PMS_P2;Temp;Humidity;BMP_temperature;BMP_pressure;BME280_temperature;BME280_humidity;BME280_pressure;Samples;Min_cycle;Max_cycle;Signal;HPM_P1;HPM_P2
2023/09/02 00:00:44;;;;;;;7.68;2.88;;;;;;;;;;5075767;28;20032;-80
2023/09/02 00:03:09;;;;;;;6.80;3.10;;;;;;;;;;5089721;28;20375;-82
2023/09/02 00:05:35;;;;;;;5.30;3.00;;;;;;;;;;5073456;28;20099;-81
2023/09/02 00:08:00;;;;;;;4.45;3.00;;;;;;;;;;5075628;28;20406;-82
2023/09/02 00:10:25;;;;;;;4.55;3.13;;;;;;;;;;5090366;28;20032;-82
2023/09/02 00:12:51;;;;;;;4.60;3.13;;;;;;;;;;5094004;28;20024;-81
2023/09/02 00:15:16;;;;;;;7.22;3.60;;;;;;;;;;5086595;28;20039;-78
2023/09/02 00:17:41;;;;;;;5.43;2.72;;;;;;;;;;5093405;28;20051;-81
2023/09/02 00:20:10;;;;;;;5.18;3.17;;;;;;;;;;5092955;28;20106;-81
2023/09/02 00:22:35;;;;;;;5.25;2.80;;;;;;;;;;5091639;28;20093;-79
2023/09/02 00:25:01;;;;;;;4.20;3.05;;;;;;;;;;5084547;28;20036;-81
2023/09/02 00:27:26;;;;;;;4.78;3.20;;;;;;;;;;5070189;28;20041;-83
2023/09/02 00:29:51;;;;;;;5.13;3.20;;;;;;;;;;5089574;28;20025;-81
2023/09/02 00:32:17;;;;;;;5.25;3.47;;;;;;;;;;5072208;28;20032;-82
2023/09/02 00:34:42;;;;;;;9.85;3.33;;;;;;;;;;5091041;28;20032;-79
2023/09/02 00:37:08;;;;;;;4.60;2.97;;;;;;;;;;5088560;28;20077;-81
2023/09/02 00:39:34;;;;;;;9.63;3.08;;;;;;;;;;5089508;28;20040;-83
2023/09/02 00:42:00;;;;;;;5.93;3.28;;;;;;;;;;5082627;28;20016;-82
2023/09/02 00:44:25;;;;;;;3.88;2.70;;;;;;;;;;5083877;28;20111;-83
2023/09/02 00:46:51;;;;;;;4.93;2.95;;;;;;;;;;5088868;28;20386;-81
2023/09/02 00:49:17;;;;;;;3.65;2.80;;;;;;;;;;5089212;28;20043;-81
2023/09/02 00:51:42;;;;;;;7.53;3.30;;;;;;;;;;5090641;28;20111;-80
2023/09/02 00:54:08;;;;;;;2.90;2.70;;;;;;;;;;5089125;28;20027;-78
2023/09/02 00:56:35;;;;;;;6.35;3.00;;;;;;;;;;5089666;28;20392;-80
2023/09/02 00:59:04;;;;;;;3.92;2.88;;;;;;;;;;5094070;28;20032;-81
2023/09/02 01:01:32;;;;;;;3.92;3.28;;;;;;;;;;5092817;28;20034;-82
2023/09/02 01:03:58;;;;;;;9.27;3.30;;;;;;;;;;5069454;28;20112;-82
2023/09/02 01:06:23;;;;;;;4.32;3.08;;;;;;;;;;5083479;28;20037;-82
2023/09/02 01:08:53;;;;;;;4.60;3.30;;;;;;;;;;5088523;28;20024;-81
2023/09/02 01:11:18;;;;;;;3.70;2.85;;;;;;;;;;5087840;28;20440;-82
2023/09/02 01:13:44;;;;;;;5.80;3.30;;;;;;;;;;5093990;28;20063;-80
2023/09/02 01:16:09;;;;;;;6.05;3.85;;;;;;;;;;5093075;28;20122;-81
2023/09/02 01:18:36;;;;;;;4.45;3.05;;;;;;;;;;5070451;28;20298;-82
2023/09/02 01:21:26;;;;;;;4.78;3.35;;;;;;;;;;5091657;28;20020;-81
2023/09/02 01:24:17;;;;;;;4.32;3.00;;;;;;;;;;5069796;28;20044;-82
2023/09/02 01:27:13;;;;;;;5.38;3.00;;;;;;;;;;5085782;28;20512;-82
2023/09/02 01:29:47;;;;;;;3.28;2.97;;;;;;;;;;5079734;28;20040;-80
2023/09/02 01:32:14;;;;;;;5.45;3.10;;;;;;;;;;5089708;28;20037;-81
2023/09/02 01:34:41;;;;;;;5.53;3.33;;;;;;;;;;5083696;28;20050;-84
2023/09/02 01:37:08;;;;;;;4.53;3.30;;;;;;;;;;5088551;28;20032;-84
2023/09/02 01:39:37;;;;;;;6.28;3.97;;;;;;;;;;5065704;28;20113;-82
2023/09/02 01:42:04;;;;;;;4.50;3.50;;;;;;;;;;5066606;28;20038;-80
2023/09/02 01:44:31;;;;;;;4.57;3.60;;;;;;;;;;5087478;28;20127;-81
2023/09/02 01:46:57;;;;;;;5.65;3.72;;;;;;;;;;5068038;28;20108;-84
2023/09/02 01:49:23;;;;;;;7.90;3.58;;;;;;;;;;5087016;28;20028;-81
2023/09/02 01:51:49;;;;;;;7.28;3.35;;;;;;;;;;5086425;28;20490;-83
2023/09/02 01:54:14;;;;;;;5.63;3.85;;;;;;;;;;5063248;28;20016;-77
2023/09/02 01:56:40;;;;;;;4.28;3.60;;;;;;;;;;5086942;28;20039;-81
2023/09/02 01:59:05;;;;;;;6.30;3.55;;;;;;;;;;5063677;28;20024;-82
2023/09/02 02:01:33;;;;;;;7.70;3.78;;;;;;;;;;5067844;28;20092;-81
2023/09/02 02:04:15;;;;;;;7.15;3.30;;;;;;;;;;5089926;28;20031;-81
2023/09/02 02:06:45;;;;;;;4.38;3.80;;;;;;;;;;5082608;28;20032;-84
2023/09/02 02:09:12;;;;;;;5.78;3.58;;;;;;;;;;5088351;28;20031;-78
2023/09/02 02:11:38;;;;;;;5.32;3.53;;;;;;;;;;5069522;28;20373;-80
2023/09/02 02:14:05;;;;;;;5.45;3.45;;;;;;;;;;5083778;28;20123;-83
2023/09/02 02:16:31;;;;;;;5.85;3.25;;;;;;;;;;5069559;28;20114;-82
2023/09/02 02:19:00;;;;;;;7.68;3.35;;;;;;;;;;5079983;28;20058;-82
2023/09/02 02:21:29;;;;;;;4.75;3.42;;;;;;;;;;5077618;28;20123;-81
2023/09/02 02:23:54;;;;;;;4.90;3.45;;;;;;;;;;5088141;28;20424;-83
2023/09/02 02:26:20;;;;;;;7.97;4.15;;;;;;;;;;5083628;28;20089;-83
2023/09/02 02:28:45;;;;;;;3.55;3.05;;;;;;;;;;5079557;28;20059;-81
2023/09/02 02:31:11;;;;;;;5.65;3.50;;;;;;;;;;5085528;28;20070;-83
2023/09/02 02:33:39;;;;;;;4.22;3.30;;;;;;;;;;5069541;28;20032;-81
2023/09/02 02:36:05;;;;;;;5.50;3.80;;;;;;;;;;5083335;28;20032;-80
2023/09/02 02:38:30;;;;;;;4.47;3.53;;;;;;;;;;5088381;28;20039;-83
2023/09/02 02:40:56;;;;;;;6.78;3.80;;;;;;;;;;5086234;28;20028;-82
2023/09/02 02:43:26;;;;;;;6.55;3.83;;;;;;;;;;5086807;28;20047;-82
2023/09/02 02:45:58;;;;;;;7.63;3.33;;;;;;;;;;5064620;28;20036;-81
2023/09/02 02:48:28;;;;;;;4.57;2.60;;;;;;;;;;5091235;28;20107;-81
2023/09/02 02:50:54;;;;;;;5.55;3.03;;;;;;;;;;5077401;28;20027;-81
2023/09/02 02:53:19;;;;;;;7.47;3.40;;;;;;;;;;5064750;28;20037;-78
2023/09/02 02:55:45;;;;;;;3.53;2.90;;;;;;;;;;5088810;28;20063;-81
2023/09/02 02:58:12;;;;;;;4.43;2.88;;;;;;;;;;5065969;28;20071;-82
2023/09/02 03:00:39;;;;;;;4.68;3.35;;;;;;;;;;5080218;28;20044;-79
2023/09/02 03:03:04;;;;;;;5.53;3.80;;;;;;;;;;5069221;28;20051;-83
2023/09/02 03:05:38;;;;;;;6.00;3.65;;;;;;;;;;5087116;28;20012;-83
2023/09/02 03:08:07;;;;;;;6.25;3.20;;;;;;;;;;5084121;28;20044;-81
2023/09/02 03:10:35;;;;;;;5.55;3.20;;;;;;;;;;5087449;28;20442;-79
2023/09/02 03:13:01;;;;;;;4.03;2.88;;;;;;;;;;5092842;28;20020;-82
2023/09/02 03:15:26;;;;;;;7.38;4.43;;;;;;;;;;5090409;28;20028;-82
2023/09/02 03:17:52;;;;;;;7.78;3.75;;;;;;;;;;5091975;28;20034;-83
2023/09/02 03:20:17;;;;;;;5.05;3.50;;;;;;;;;;5081776;28;20032;-85
2023/09/02 03:22:42;;;;;;;4.05;3.60;;;;;;;;;;5072481;28;20375;-83
2023/09/02 03:25:08;;;;;;;5.13;3.20;;;;;;;;;;5070944;28;20040;-81
2023/09/02 03:27:42;;;;;;;5.20;3.80;;;;;;;;;;5091810;28;20043;-82
2023/09/02 03:30:08;;;;;;;4.80;3.38;;;;;;;;;;5091444;28;20089;-82
2023/09/02 03:32:34;;;;;;;5.70;3.20;;;;;;;;;;5095768;28;20040;-81
2023/09/02 03:35:00;;;;;;;5.72;3.05;;;;;;;;;;5081878;28;20096;-81
2023/09/02 03:37:26;;;;;;;5.10;3.03;;;;;;;;;;5090380;28;20052;-80
2023/09/02 03:39:53;;;;;;;4.55;3.08;;;;;;;;;;5082063;28;20039;-80
2023/09/02 03:42:19;;;;;;;2.97;2.67;;;;;;;;;;5095926;28;20024;-81
2023/09/02 03:44:44;;;;;;;3.65;2.92;;;;;;;;;;5080723;28;20041;-80
2023/09/02 03:47:09;;;;;;;9.02;3.33;;;;;;;;;;5078696;28;20629;-81
2023/09/02 03:49:34;;;;;;;7.05;3.60;;;;;;;;;;5098259;28;20203;-82
2023/09/02 03:52:00;;;;;;;5.28;3.80;;;;;;;;;;5094049;28;20032;-82
2023/09/02 03:54:25;;;;;;;4.30;3.38;;;;;;;;;;5080854;28;20386;-82
2023/09/02 03:56:50;;;;;;;9.05;3.88;;;;;;;;;;5094073;28;20081;-81
2023/09/02 03:59:16;;;;;;;4.72;3.42;;;;;;;;;;5095210;28;20035;-82
2023/09/02 04:01:41;;;;;;;5.15;3.30;;;;;;;;;;5091567;28;20124;-81
2023/09/02 04:04:06;;;;;;;4.72;3.60;;;;;;;;;;5094610;28;20457;-81
2023/09/02 04:06:32;;;;;;;5.60;3.97;;;;;;;;;;5097409;28;20032;-80
2023/09/02 04:08:57;;;;;;;6.53;4.10;;;;;;;;;;5094418;28;20084;-79
2023/09/02 04:11:23;;;;;;;10.30;4.53;;;;;;;;;;5094987;28;20070;-80
2023/09/02 04:13:48;;;;;;;7.03;4.50;;;;;;;;;;5073822;28;20028;-82
2023/09/02 04:16:14;;;;;;;5.03;3.78;;;;;;;;;;5095879;28;20043;-82
2023/09/02 04:18:39;;;;;;;6.25;3.85;;;;;;;;;;5085192;28;20053;-82
2023/09/02 04:21:05;;;;;;;11.90;4.15;;;;;;;;;;5084617;28;20076;-82
2023/09/02 04:23:30;;;;;;;6.75;4.22;;;;;;;;;;5084754;28;20114;-83
2023/09/02 04:25:57;;;;;;;6.13;3.58;;;;;;;;;;5088984;28;20093;-82
2023/09/02 04:28:23;;;;;;;4.82;3.50;;;;;;;;;;5071807;28;20067;-82
2023/09/02 04:30:49;;;;;;;10.88;3.40;;;;;;;;;;5091212;28;20040;-82
2023/09/02 04:33:16;;;;;;;6.35;3.45;;;;;;;;;;5090851;28;20013;-82
2023/09/02 04:35:43;;;;;;;4.35;3.38;;;;;;;;;;5090626;28;20356;-81
2023/09/02 04:38:09;;;;;;;6.43;3.38;;;;;;;;;;5089210;28;20040;-81
2023/09/02 04:40:38;;;;;;;7.20;4.30;;;;;;;;;;5090603;28;20044;-81
2023/09/02 04:43:05;;;;;;;8.15;4.30;;;;;;;;;;5091874;28;20065;-81
2023/09/02 04:45:39;;;;;;;5.47;4.10;;;;;;;;;;5085687;28;20057;-81
2023/09/02 04:48:05;;;;;;;6.00;4.03;;;;;;;;;;5090880;28;20036;-81
2023/09/02 04:50:31;;;;;;;6.80;3.85;;;;;;;;;;5098157;28;20107;-81
2023/09/02 04:52:58;;;;;;;8.23;4.60;;;;;;;;;;5097834;28;20032;-81
2023/09/02 04:55:27;;;;;;;6.60;4.05;;;;;;;;;;5097543;28;20056;-82
2023/09/02 04:57:53;;;;;;;4.45;3.53;;;;;;;;;;5098143;28;20414;-83
2023/09/02 05:00:20;;;;;;;6.20;3.45;;;;;;;;;;5097268;28;20414;-82
2023/09/02 05:02:48;;;;;;;8.07;4.10;;;;;;;;;;5097381;28;20100;-81
2023/09/02 05:05:15;;;;;;;7.28;4.15;;;;;;;;;;5097598;28;20043;-80
2023/09/02 05:07:40;;;;;;;5.63;3.75;;;;;;;;;;5097543;28;20040;-79
2023/09/02 05:10:06;;;;;;;5.63;3.97;;;;;;;;;;5096856;28;20039;-81
2023/09/02 05:12:33;;;;;;;8.23;4.50;;;;;;;;;;5098029;28;20145;-83
2023/09/02 05:14:59;;;;;;;5.13;4.00;;;;;;;;;;5095965;28;20740;-82
2023/09/02 05:17:24;;;;;;;8.02;3.80;;;;;;;;;;5097660;28;20035;-79
2023/09/02 05:19:49;;;;;;;6.28;3.83;;;;;;;;;;5101123;28;20364;-82
2023/09/02 05:22:14;;;;;;;6.20;3.70;;;;;;;;;;5074360;28;20055;-82
2023/09/02 05:24:40;;;;;;;4.10;3.35;;;;;;;;;;5077891;28;20043;-82
2023/09/02 05:27:06;;;;;;;4.82;3.20;;;;;;;;;;5092030;28;20022;-84
2023/09/02 05:29:31;;;;;;;5.57;3.47;;;;;;;;;;5094922;28;20020;-84
2023/09/02 05:31:56;;;;;;;5.53;2.90;;;;;;;;;;5095891;28;20081;-82
2023/09/02 05:34:22;;;;;;;4.15;2.80;;;;;;;;;;5084082;28;20042;-79
2023/09/02 05:36:47;;;;;;;6.18;2.78;;;;;;;;;;5077556;28;20123;-78
2023/09/02 05:39:13;;;;;;;3.75;2.40;;;;;;;;;;5060764;28;20562;-79
2023/09/02 05:41:39;;;;;;;4.05;2.55;;;;;;;;;;5078780;28;20021;-78
2023/09/02 05:44:04;;;;;;;2.95;2.17;;;;;;;;;;5076913;28;20171;-79
2023/09/02 05:46:29;;;;;;;5.00;2.60;;;;;;;;;;5078673;28;20032;-82
2023/09/02 05:48:55;;;;;;;7.65;2.42;;;;;;;;;;5089865;28;20043;-80
2023/09/02 05:51:20;;;;;;;4.45;2.65;;;;;;;;;;5096520;28;20023;-79
2023/09/02 05:53:46;;;;;;;3.70;2.50;;;;;;;;;;5098649;28;20024;-81
2023/09/02 05:56:12;;;;;;;9.93;2.20;;;;;;;;;;5080673;28;20031;-80
2023/09/02 05:58:37;;;;;;;1.90;1.80;;;;;;;;;;5098663;28;20036;-81
2023/09/02 06:01:05;;;;;;;6.65;2.00;;;;;;;;;;5096226;28;20051;-80
2023/09/02 06:03:31;;;;;;;2.53;2.08;;;;;;;;;;5092268;28;20498;-81
2023/09/02 06:05:57;;;;;;;1.73;1.63;;;;;;;;;;5093473;28;20016;-82
2023/09/02 06:08:22;;;;;;;3.22;2.03;;;;;;;;;;5077897;28;20044;-80
2023/09/02 06:10:58;;;;;;;2.83;1.85;;;;;;;;;;5095443;28;20032;-79
2023/09/02 06:13:24;;;;;;;2.20;1.80;;;;;;;;;;5080302;28;20375;-79
2023/09/02 06:15:49;;;;;;;2.30;1.60;;;;;;;;;;5095087;28;20043;-80
2023/09/02 06:18:15;;;;;;;2.92;1.73;;;;;;;;;;5095508;28;20521;-79
2023/09/02 06:20:40;;;;;;;2.35;1.65;;;;;;;;;;5095136;28;20149;-82
2023/09/02 06:23:05;;;;;;;1.95;1.80;;;;;;;;;;5094386;28;20040;-81
2023/09/02 06:25:30;;;;;;;5.95;1.90;;;;;;;;;;5094226;28;20040;-81
2023/09/02 06:27:56;;;;;;;3.20;1.80;;;;;;;;;;5077695;28;20097;-82
2023/09/02 06:30:21;;;;;;;2.20;1.90;;;;;;;;;;5094771;28;20063;-82
2023/09/02 06:32:46;;;;;;;1.85;1.73;;;;;;;;;;5092946;28;20016;-82
2023/09/02 06:35:15;;;;;;;2.17;1.90;;;;;;;;;;5090358;28;20032;-82
2023/09/02 06:37:43;;;;;;;4.57;1.40;;;;;;;;;;5094992;28;20079;-80
2023/09/02 06:40:09;;;;;;;3.90;1.70;;;;;;;;;;5093174;28;20422;-81
2023/09/02 06:42:35;;;;;;;5.75;2.28;;;;;;;;;;5095819;28;20047;-83
2023/09/02 06:45:00;;;;;;;5.80;1.80;;;;;;;;;;5094824;28;20028;-81
2023/09/02 06:47:26;;;;;;;3.00;1.67;;;;;;;;;;5079102;28;20067;-79
2023/09/02 06:49:51;;;;;;;3.38;2.03;;;;;;;;;;5101324;28;20516;-81
2023/09/02 06:52:16;;;;;;;1.80;1.70;;;;;;;;;;5087793;28;20044;-81
2023/09/02 06:54:42;;;;;;;5.30;1.80;;;;;;;;;;5099105;28;20071;-82
2023/09/02 06:57:07;;;;;;;2.08;1.80;;;;;;;;;;5097025;28;20071;-81
2023/09/02 06:59:35;;;;;;;4.07;2.20;;;;;;;;;;5097626;28;20028;-81
2023/09/02 07:02:02;;;;;;;5.38;1.73;;;;;;;;;;5095726;28;20032;-81
2023/09/02 07:04:27;;;;;;;2.20;2.00;;;;;;;;;;5079817;28;20440;-82
2023/09/02 07:06:53;;;;;;;2.55;1.52;;;;;;;;;;5096421;28;20123;-80
2023/09/02 07:09:18;;;;;;;2.67;1.90;;;;;;;;;;5096239;28;20020;-81
2023/09/02 07:11:43;;;;;;;2.08;1.83;;;;;;;;;;5098754;28;20032;-81
2023/09/02 07:14:09;;;;;;;3.83;2.00;;;;;;;;;;5077353;28;20055;-82
2023/09/02 07:16:34;;;;;;;2.08;1.77;;;;;;;;;;5097662;28;20064;-82
2023/09/02 07:19:03;;;;;;;2.40;1.90;;;;;;;;;;5095388;28;20071;-83
2023/09/02 07:21:28;;;;;;;2.08;1.88;;;;;;;;;;5098445;28;20028;-81
2023/09/02 07:23:53;;;;;;;2.22;1.88;;;;;;;;;;5079290;28;20099;-81
2023/09/02 07:26:19;;;;;;;2.47;1.80;;;;;;;;;;5093690;28;20041;-79
2023/09/02 07:28:44;;;;;;;2.05;1.70;;;;;;;;;;5096746;28;20360;-79
2023/09/02 07:31:10;;;;;;;4.43;2.03;;;;;;;;;;5097049;28;20119;-82
2023/09/02 07:33:36;;;;;;;3.03;1.95;;;;;;;;;;5092872;28;20037;-80
2023/09/02 07:36:12;;;;;;;2.00;1.80;;;;;;;;;;5085828;28;20020;-80
2023/09/02 07:38:39;;;;;;;2.88;1.88;;;;;;;;;;5093080;28;20043;-80
2023/09/02 07:41:05;;;;;;;1.90;1.80;;;;;;;;;;5078347;28;20096;-80
2023/09/02 07:43:31;;;;;;;2.05;1.80;;;;;;;;;;5097899;28;20063;-80
2023/09/02 07:45:57;;;;;;;2.60;1.90;;;;;;;;;;5098025;28;20522;-82
2023/09/02 07:48:22;;;;;;;3.22;1.70;;;;;;;;;;5092005;28;20040;-82
2023/09/02 07:50:48;;;;;;;2.08;1.88;;;;;;;;;;5076372;28;20510;-82
2023/09/02 07:53:14;;;;;;;5.22;1.80;;;;;;;;;;5092079;28;20036;-81
2023/09/02 07:55:39;;;;;;;1.90;1.70;;;;;;;;;;5098476;28;20490;-80
2023/09/02 07:58:05;;;;;;;3.15;1.63;;;;;;;;;;5099268;28;20043;-77
2023/09/02 08:00:33;;;;;;;5.68;2.08;;;;;;;;;;5097426;28;20028;-78
2023/09/02 08:02:58;;;;;;;1.77;1.45;;;;;;;;;;5082128;28;20051;-78
2023/09/02 08:05:24;;;;;;;5.18;1.85;;;;;;;;;;5080978;28;20036;-78
2023/09/02 08:07:50;;;;;;;2.85;1.92;;;;;;;;;;5100045;28;20039;-80
2023/09/02 08:10:15;;;;;;;1.80;1.70;;;;;;;;;;5100207;28;20066;-80
2023/09/02 08:12:40;;;;;;;2.45;1.65;;;;;;;;;;5101438;28;20032;-77
2023/09/02 08:15:06;;;;;;;2.72;1.92;;;;;;;;;;5103691;28;20493;-79
2023/09/02 08:17:39;;;;;;;1.85;1.75;;;;;;;;;;5103355;28;20028;-79
2023/09/02 08:20:06;;;;;;;2.08;1.80;;;;;;;;;;5083517;28;20115;-77
2023/09/02 08:22:31;;;;;;;3.08;1.80;;;;;;;;;;5082822;28;20530;-78
2023/09/02 08:24:57;;;;;;;4.05;2.00;;;;;;;;;;5083180;28;20039;-79
2023/09/02 08:27:24;;;;;;;1.80;1.70;;;;;;;;;;5101980;28;20043;-79
2023/09/02 08:29:49;;;;;;;1.70;1.60;;;;;;;;;;5084346;28;20410;-78
2023/09/02 08:32:14;;;;;;;4.25;1.88;;;;;;;;;;5101996;28;20145;-79
2023/09/02 08:34:39;;;;;;;2.15;1.80;;;;;;;;;;5101457;28;20039;-78
2023/09/02 08:37:05;;;;;;;2.70;1.65;;;;;;;;;;5099301;28;20032;-76
2023/09/02 08:39:30;;;;;;;1.80;1.65;;;;;;;;;;5098276;28;20107;-78
2023/09/02 08:41:55;;;;;;;2.10;1.52;;;;;;;;;;5102269;28;20043;-78
2023/09/02 08:44:22;;;;;;;5.53;2.00;;;;;;;;;;5084843;28;20398;-77
2023/09/02 08:46:51;;;;;;;3.65;1.88;;;;;;;;;;5083217;28;20043;-78
2023/09/02 08:49:18;;;;;;;1.60;1.50;;;;;;;;;;5081447;28;20280;-79
2023/09/02 08:51:45;;;;;;;2.70;2.00;;;;;;;;;;5080917;28;20039;-78
2023/09/02 08:54:12;;;;;;;1.52;1.40;;;;;;;;;;5099805;28;20027;-78
2023/09/02 08:56:41;;;;;;;4.38;1.83;;;;;;;;;;5100734;28;20078;-80
2023/09/02 08:59:08;;;;;;;1.95;1.73;;;;;;;;;;5098863;28;20040;-80
2023/09/02 09:01:34;;;;;;;3.08;1.63;;;;;;;;;;5099110;28;20036;-80
2023/09/02 09:04:01;;;;;;;5.18;1.45;;;;;;;;;;5098303;28;20040;-80
2023/09/02 09:06:27;;;;;;;1.60;1.50;;;;;;;;;;5102778;28;20036;-78
2023/09/02 09:08:54;;;;;;;2.63;1.80;;;;;;;;;;5103095;28;20369;-80
2023/09/02 09:11:22;;;;;;;2.22;1.40;;;;;;;;;;5079157;28;20056;-81
2023/09/02 09:13:49;;;;;;;2.08;1.67;;;;;;;;;;5096871;28;20028;-78
2023/09/02 09:16:22;;;;;;;4.05;1.73;;;;;;;;;;5096826;28;20058;-80
2023/09/02 09:18:49;;;;;;;2.47;1.63;;;;;;;;;;5098030;28;20108;-79
2023/09/02 09:21:14;;;;;;;2.25;1.73;;;;;;;;;;5097330;28;20027;-80
2023/09/02 09:23:40;;;;;;;3.40;1.50;;;;;;;;;;5098654;28;20032;-79
2023/09/02 09:26:07;;;;;;;2.33;1.60;;;;;;;;;;5098465;28;20453;-80
2023/09/02 09:28:52;;;;;;;3.50;1.88;;;;;;;;;;5098165;28;20423;-80
2023/09/02 09:31:18;;;;;;;3.17;1.90;;;;;;;;;;5097646;28;20035;-80
2023/09/02 09:33:58;;;;;;;2.25;1.83;;;;;;;;;;5096690;28;20032;-80
2023/09/02 09:36:24;;;;;;;4.70;1.90;;;;;;;;;;5096982;28;20178;-80
2023/09/02 09:38:53;;;;;;;2.30;1.95;;;;;;;;;;5098276;28;20028;-78
2023/09/02 09:41:19;;;;;;;1.90;1.67;;;;;;;;;;5096735;28;20039;-78
2023/09/02 09:43:45;;;;;;;4.50;1.65;;;;;;;;;;5096964;28;20033;-80
2023/09/02 09:46:15;;;;;;;2.75;1.85;;;;;;;;;;5097399;28;20043;-79
2023/09/02 09:48:48;;;;;;;7.25;1.85;;;;;;;;;;5097740;28;20434;-80
2023/09/02 09:51:23;;;;;;;1.92;1.63;;;;;;;;;;5085875;28;20020;-80
2023/09/02 09:53:48;;;;;;;3.58;1.48;;;;;;;;;;5087763;28;20498;-81
2023/09/02 09:56:14;;;;;;;3.90;1.60;;;;;;;;;;5089854;28;20039;-81
2023/09/02 09:58:39;;;;;;;1.80;1.52;;;;;;;;;;5063807;28;20043;-78
2023/09/02 10:01:04;;;;;;;6.95;3.05;;;;;;;;;;5087988;28;20055;-82
2023/09/02 10:03:30;;;;;;;2.50;1.60;;;;;;;;;;5088040;28;20059;-81
2023/09/02 10:06:00;;;;;;;3.05;1.80;;;;;;;;;;5089820;28;20241;-80
2023/09/02 10:08:25;;;;;;;1.90;1.70;;;;;;;;;;5088481;28;20055;-80
2023/09/02 10:10:50;;;;;;;3.13;1.95;;;;;;;;;;5088894;28;20044;-81
2023/09/02 10:13:17;;;;;;;2.40;1.48;;;;;;;;;;5071542;28;20039;-80
2023/09/02 10:15:43;;;;;;;2.17;1.60;;;;;;;;;;5063169;28;20040;-80
2023/09/02 10:18:09;;;;;;;1.58;1.48;;;;;;;;;;5081262;28;20115;-79
2023/09/02 10:20:35;;;;;;;1.98;1.83;;;;;;;;;;5089146;28;20063;-78
2023/09/02 10:23:10;;;;;;;4.53;1.70;;;;;;;;;;5097405;28;20407;-77
2023/09/02 10:26:08;;;;;;;2.53;1.80;;;;;;;;;;5097529;28;20028;-78
2023/09/02 10:28:40;;;;;;;2.28;1.90;;;;;;;;;;5096878;28;20043;-78
2023/09/02 10:31:20;;;;;;;2.00;1.70;;;;;;;;;;5096183;28;20391;-79
2023/09/02 10:33:52;;;;;;;2.53;1.77;;;;;;;;;;5077164;28;20028;-79
2023/09/02 10:36:19;;;;;;;3.33;1.70;;;;;;;;;;5095034;28;20016;-78
2023/09/02 10:38:48;;;;;;;1.55;1.42;;;;;;;;;;5096681;28;20098;-79
2023/09/02 10:41:15;;;;;;;3.70;1.70;;;;;;;;;;5094523;28;20097;-79
2023/09/02 10:43:44;;;;;;;1.85;1.50;;;;;;;;;;5095361;28;20046;-79
2023/09/02 10:46:10;;;;;;;2.13;1.65;;;;;;;;;;5074696;28;20046;-79
2023/09/02 10:48:43;;;;;;;1.67;1.40;;;;;;;;;;5090333;28;20067;-80
2023/09/02 10:51:09;;;;;;;2.28;1.60;;;;;;;;;;5093030;28;20024;-80
2023/09/02 10:53:53;;;;;;;2.15;1.58;;;;;;;;;;5091943;28;20036;-79
2023/09/02 10:56:35;;;;;;;2.65;1.85;;;;;;;;;;5092185;28;20040;-80
2023/09/02 10:59:03;;;;;;;6.63;1.80;;;;;;;;;;5092869;28;20036;-79
2023/09/02 11:01:48;;;;;;;4.63;1.65;;;;;;;;;;5092843;28;20024;-79
2023/09/02 11:04:16;;;;;;;2.28;1.92;;;;;;;;;;5096197;28;20063;-79
2023/09/02 11:07:19;;;;;;;1.70;1.50;;;;;;;;;;5095237;28;20037;-79
2023/09/02 11:09:52;;;;;;;2.75;2.00;;;;;;;;;;5091797;28;20055;-79
2023/09/02 11:12:18;;;;;;;1.70;1.60;;;;;;;;;;5093542;28;20023;-80
2023/09/02 11:15:08;;;;;;;1.48;1.38;;;;;;;;;;5057617;22;20050;-77
2023/09/02 11:17:34;;;;;;;2.80;1.85;;;;;;;;;;4980465;28;20042;-77
2023/09/02 11:20:07;;;;;;;2.17;1.70;;;;;;;;;;4981429;28;20042;-77
2023/09/02 11:22:50;;;;;;;2.20;1.90;;;;;;;;;;4984819;28;20041;-77
2023/09/02 11:25:28;;;;;;;2.95;1.75;;;;;;;;;;4982329;28;20039;-77
2023/09/02 11:27:55;;;;;;;2.13;1.67;;;;;;;;;;4990389;28;20417;-77
2023/09/02 11:30:22;;;;;;;2.05;1.73;;;;;;;;;;4974307;28;20387;-77
2023/09/02 11:32:48;;;;;;;1.92;1.80;;;;;;;;;;4987412;28;20501;-77
2023/09/02 11:35:21;;;;;;;2.33;1.60;;;;;;;;;;4987892;28;20031;-77
2023/09/02 11:37:47;;;;;;;3.78;1.98;;;;;;;;;;4985152;28;20027;-77
2023/09/02 11:40:19;;;;;;;2.55;1.92;;;;;;;;;;4989046;28;20406;-78
2023/09/02 11:42:47;;;;;;;2.72;1.98;;;;;;;;;;4989544;28;20092;-77
2023/09/02 11:45:16;;;;;;;5.32;1.70;;;;;;;;;;4990195;28;20038;-78
2023/09/02 11:47:42;;;;;;;5.30;1.70;;;;;;;;;;4992896;28;20498;-78
2023/09/02 11:50:12;;;;;;;2.40;1.83;;;;;;;;;;4991265;28;20084;-78
2023/09/02 11:52:38;;;;;;;3.83;2.08;;;;;;;;;;4977535;28;20035;-78
2023/09/02 11:55:08;;;;;;;3.55;1.73;;;;;;;;;;4989426;28;20121;-77
2023/09/02 11:57:33;;;;;;;6.40;1.90;;;;;;;;;;4997636;28;20049;-78
2023/09/02 11:59:58;;;;;;;3.25;1.85;;;;;;;;;;4993680;28;20016;-78
2023/09/02 12:02:25;;;;;;;2.05;1.42;;;;;;;;;;4992978;28;20496;-77
2023/09/02 12:04:50;;;;;;;4.00;1.65;;;;;;;;;;4989340;28;20047;-78
2023/09/02 12:07:17;;;;;;;1.85;1.55;;;;;;;;;;4988769;28;20051;-78
2023/09/02 12:09:43;;;;;;;6.95;1.90;;;;;;;;;;4990865;28;20030;-77
2023/09/02 12:12:08;;;;;;;3.28;1.98;;;;;;;;;;4986590;28;20018;-78
2023/09/02 12:14:36;;;;;;;2.67;1.90;;;;;;;;;;4984361;28;20034;-77
2023/09/02 12:17:04;;;;;;;4.85;2.20;;;;;;;;;;4973710;28;20074;-77
2023/09/02 12:19:29;;;;;;;2.05;1.80;;;;;;;;;;4982565;28;20038;-77
2023/09/02 12:21:55;;;;;;;3.05;1.85;;;;;;;;;;4982288;28;20121;-76
2023/09/02 12:24:20;;;;;;;7.80;2.03;;;;;;;;;;4981422;28;20018;-76
2023/09/02 12:26:47;;;;;;;2.53;2.03;;;;;;;;;;4981197;28;20038;-77
2023/09/02 12:29:16;;;;;;;2.00;1.80;;;;;;;;;;4997438;28;20062;-77
2023/09/02 12:31:44;;;;;;;8.35;2.13;;;;;;;;;;4989708;28;20053;-77
2023/09/02 12:34:10;;;;;;;2.15;1.88;;;;;;;;;;4974807;28;20168;-77
2023/09/02 12:36:35;;;;;;;2.30;2.10;;;;;;;;;;4982293;28;20102;-77
2023/09/02 12:39:01;;;;;;;1.73;1.60;;;;;;;;;;4997740;28;20147;-77
2023/09/02 12:41:39;;;;;;;2.10;1.70;;;;;;;;;;4988728;28;20036;-77
2023/09/02 12:44:16;;;;;;;1.85;1.75;;;;;;;;;;4981495;28;20496;-77
2023/09/02 12:46:42;;;;;;;2.10;1.90;;;;;;;;;;4980397;28;20034;-76
2023/09/02 12:49:09;;;;;;;2.10;1.90;;;;;;;;;;4983406;28;20037;-76
2023/09/02 12:51:38;;;;;;;3.60;1.75;;;;;;;;;;4981069;28;20080;-76
2023/09/02 12:54:10;;;;;;;2.13;1.73;;;;;;;;;;4986976;28;20037;-77
2023/09/02 12:56:36;;;;;;;1.80;1.70;;;;;;;;;;4986929;28;20034;-77
2023/09/02 12:59:02;;;;;;;2.63;2.10;;;;;;;;;;4989111;28;20026;-77
2023/09/02 13:01:28;;;;;;;4.20;1.90;;;;;;;;;;4984562;28;20058;-77
2023/09/02 13:03:54;;;;;;;2.05;1.63;;;;;;;;;;4978772;28;20034;-77
2023/09/02 13:06:19;;;;;;;1.70;1.60;;;;;;;;;;4992317;28;20623;-76
2023/09/02 13:08:45;;;;;;;4.45;1.90;;;;;;;;;;4982575;28;20025;-76
2023/09/02 13:11:10;;;;;;;3.70;2.10;;;;;;;;;;4986119;28;20038;-77
2023/09/02 13:13:36;;;;;;;4.70;1.83;;;;;;;;;;4987901;28;20567;-76
2023/09/02 13:16:01;;;;;;;4.72;1.83;;;;;;;;;;4985767;28;20381;-77
2023/09/02 13:18:26;;;;;;;2.05;1.85;;;;;;;;;;4989616;28;20087;-76
2023/09/02 13:20:52;;;;;;;2.08;1.83;;;;;;;;;;4987401;28;20525;-77
2023/09/02 13:23:18;;;;;;;2.70;2.00;;;;;;;;;;4987394;28;20038;-76
2023/09/02 13:25:43;;;;;;;2.45;1.95;;;;;;;;;;4986655;28;20095;-77
2023/09/02 13:28:10;;;;;;;2.58;1.75;;;;;;;;;;4973802;28;20847;-76
2023/09/02 13:30:35;;;;;;;1.98;1.60;;;;;;;;;;4987242;28;20082;-77
2023/09/02 13:33:00;;;;;;;1.73;1.63;;;;;;;;;;4986104;28;20058;-76
2023/09/02 13:35:28;;;;;;;2.25;1.90;;;;;;;;;;4989172;28;20035;-76
2023/09/02 13:37:53;;;;;;;4.82;1.90;;;;;;;;;;4989654;28;20499;-76
2023/09/02 13:40:23;;;;;;;2.95;2.08;;;;;;;;;;4985022;28;20092;-77
2023/09/02 13:42:48;;;;;;;1.88;1.55;;;;;;;;;;4987439;28;20073;-76
2023/09/02 13:45:14;;;;;;;3.53;2.08;;;;;;;;;;4982915;28;20134;-76
2023/09/02 13:47:47;;;;;;;1.88;1.77;;;;;;;;;;4975581;28;20054;-76
2023/09/02 13:50:14;;;;;;;2.88;1.88;;;;;;;;;;4996942;28;20028;-76
2023/09/02 13:52:39;;;;;;;2.72;1.90;;;;;;;;;;4986795;28;20038;-76
2023/09/02 13:55:05;;;;;;;4.32;2.00;;;;;;;;;;4986429;28;20557;-77
2023/09/02 13:57:31;;;;;;;2.00;1.75;;;;;;;;;;4986428;28;20117;-76
2023/09/02 13:59:59;;;;;;;1.90;1.70;;;;;;;;;;4985777;28;20026;-77
2023/09/02 14:02:25;;;;;;;2.33;1.85;;;;;;;;;;4985288;28;20066;-77
2023/09/02 14:04:52;;;;;;;1.75;1.65;;;;;;;;;;4986774;28;20108;-76
2023/09/02 14:07:18;;;;;;;1.70;1.45;;;;;;;;;;4972295;28;20447;-77
2023/09/02 14:09:44;;;;;;;1.65;1.55;;;;;;;;;;4984298;28;20042;-76
2023/09/02 14:12:11;;;;;;;8.82;2.00;;;;;;;;;;4985841;28;20022;-76
2023/09/02 14:14:36;;;;;;;2.35;1.70;;;;;;;;;;4975345;28;20121;-77
2023/09/02 14:17:02;;;;;;;2.35;1.90;;;;;;;;;;4985052;28;20118;-77
2023/09/02 14:19:27;;;;;;;1.70;1.60;;;;;;;;;;4985181;28;20508;-77
2023/09/02 14:21:52;;;;;;;2.83;1.90;;;;;;;;;;4977939;28;20046;-76
2023/09/02 14:24:17;;;;;;;2.17;1.73;;;;;;;;;;4986168;28;20033;-76
2023/09/02 14:26:43;;;;;;;1.83;1.70;;;;;;;;;;4986163;28;20175;-76
2023/09/02 14:29:08;;;;;;;1.90;1.70;;;;;;;;;;4983927;28;20058;-77
2023/09/02 14:31:34;;;;;;;1.92;1.80;;;;;;;;;;4984802;28;20047;-77
2023/09/02 14:33:59;;;;;;;3.70;2.00;;;;;;;;;;4986187;28;20534;-76
2023/09/02 14:36:24;;;;;;;1.90;1.80;;;;;;;;;;4986606;28;20045;-75
2023/09/02 14:38:50;;;;;;;3.75;1.80;;;;;;;;;;4988156;28;20037;-75
2023/09/02 14:41:15;;;;;;;9.20;1.80;;;;;;;;;;4976151;28;20035;-76
2023/09/02 14:43:45;;;;;;;1.80;1.70;;;;;;;;;;4987398;28;20201;-76